Waterloo, Wisconsin
Current Conditions -  °F | °C
As of 4:35 AM on Friday 24 Oct 2014 (Local Time) from KRYV Reporting Station
Overcast Overcast  
Wind Chill: 48°   Ceiling: 700
Heat Index: 48°   Visibility: 7mi
Dew Point: 48°   Wind: 0mph
Humidity: 100%   Direction: NA
Pressure: 30.04"   Gusts: NA
Location:  43.18°N, 88.99°W
Report Text: KRYV 240935Z AUTO 00000KT 7SM OVC007 09/09 A3004 RMK AO2 T00900090
Loading
Personal Weather Stations






























Interactive Weather Map
Tropical Storm Tracking
New forecast layout! Learn more

10-Day Weather Forecast

Advertisements
Track Severe Weather on mobile